KSUZ

Saline County Regional Airport

Benton, Arkansas, USA
METAR KSUZ 151935Z AUTO 08011G17KT 8SM OVC019 07/03 A2978 RMK A01
Observed Flight Rules
Feb-15 @ 19:35 UTC (23 minutes ago) Marginal Visual Flight Rules
Wind Visibility Clouds
80° at 11 knots
 Gusting to 17 knots
8 miles
  • Overcast at 1,900' AGL
Temperatures Readings
Current 7°C / 45°F
Dewpoint 3°C / 37°F
Humidity 76%
Altimeter 29.78" Hg
Pressure 1008.42 hPa
Elevation 119
METAR KSUZ 151935Z AUTO 08011G17KT 8SM OVC019 07/03 A2978 RMK A01
Observed Flight Rules
Feb-15 @ 19:35 UTC
(23 minutes ago)
MVFR
Wind Visibility
80° at 11 knots
 Gusting to 17 knots
8 miles
Clouds
  • Overcast at 1,900' AGL
Temperature Dewpoint
7°C / 45°F 3°C / 37°F
Humidity Altimeter Pressure
76% 29.78" Hg 1008.42 hPa